Data for 04/16/2005

Time Sea-Level Adjusted Pressure Absolute Pressure Temperature Relative Humidity Dew Point   
(mb) (inHg) (mb) (inHg) (C) (F) (%) (C) (F)
00:05 1021 30.15 850 25.1 3.5 38.2 41 -8.5 16.8
00:10 1021 30.15 850 25.1 2.9 37.3 43 -8.4 17
00:15 1021 30.15 850 25.1 3 37.3 41 -9.1 15.7
00:20 1021 30.15 850 25.1 3.3 38 39 -9.2 15.4
00:25 1021 30.15 850 25.1 3.3 37.9 41 -8.8 16.2
00:30 1021 30.15 850 25.1 3.1 37.5 42 -8.7 16.3
00:35 1021 30.15 850 25.1 2.9 37.3 42 -8.8 16.2
00:40 1021 30.15 850 25.1 2.9 37.2 43 -8.5 16.6
00:45 1021 30.15 850 25.1 2.9 37.3 42 -8.8 16.1
00:50 1021 30.15 850 25.1 2.9 37.3 42 -8.8 16.2
00:55 1021 30.15 850 25.1 2.9 37.3 43 -8.5 16.7
01:00 1021 30.15 850 25.1 2.6 36.7 44 -8.4 16.9
01:05 1021 30.15 850 25.1 2.4 36.3 44 -8.5 16.7
01:10 1021 30.15 850 25.1 2.7 36.8 42 -8.9 15.9
01:15 1021 30.15 850 25.1 2.9 37.2 42 -8.9 16
01:20 1021 30.15 850 25.1 2.8 37.1 43 -8.6 16.5
01:25 1021 30.15 850 25.1 2.6 36.7 43 -8.6 16.5
01:30 1021 30.15 850 25.1 2.6 36.6 43 -8.9 16
01:35 1021 30.15 850 25.1 2.6 36.7 43 -8.6 16.5
01:40 1021 30.15 850 25.1 2.6 36.6 43 -8.7 16.3
01:45 1021 30.15 850 25.1 3 37.3 40 -9.2 15.4
01:50 1021 30.15 850 25.1 3.2 37.8 40 -9 15.8
01:55 1021 30.15 850 25.1 3.1 37.5 41 -8.8 16.1
02:00 1021 30.15 850 25.1 2.9 37.2 43 -8.5 16.6
02:05 1021 30.15 850 25.1 2.6 36.6 44 -8.6 16.6
02:10 1021 30.15 850 25.1 2.4 36.4 43 -8.8 16.1
02:15 1021 30.15 850 25.1 2.6 36.7 43 -8.6 16.5
02:20 1021 30.15 850 25.1 2.4 36.3 44 -8.6 16.5
02:25 1021 30.15 850 25.1 2.4 36.3 43 -8.8 16.1
02:30 1021 30.15 850 25.1 2.5 36.5 44 -8.5 16.7
02:35 1021 30.15 850 25.1 2.4 36.4 44 -8.7 16.3
02:40 1021 30.15 850 25.1 2.3 36.1 45 -8.5 16.8
02:45 1021 30.15 850 25.1 2.1 35.9 45 -8.5 16.7
02:50 1021 30.15 850 25.1 2.2 35.9 44 -8.9 16
02:55 1021 30.15 850 25.1 2.3 36.1 45 -8.6 16.6
03:00 1021 30.15 850 25.1 2 35.5 46 -8.4 16.9
03:05 1021 30.15 850 25.1 1.7 35 47 -8.4 16.8
03:10 1021 30.15 850 25.1 1.6 35 47 -8.6 16.6
03:15 1021 30.15 850 25.1 1.8 35.2 45 -8.9 16
03:20 1021 30.15 850 25.1 2 35.7 44 -8.8 16.1
03:25 1021 30.15 850 25.1 2.2 36 44 -8.9 15.9
03:30 1021 30.15 850 25.1 2.3 36.1 44 -8.9 16
03:35 1021 30.15 850 25.1 2.3 36.1 43 -8.9 15.9
03:40 1021 30.15 850 25.1 2.2 35.9 44 -8.7 16.3
03:45 1021 30.15 850 25.1 2.1 35.7 44 -8.9 16
03:50 1021 30.15 850 25.1 2 35.6 45 -8.8 16.2
03:55 1021 30.15 850 25.1 1.9 35.4 45 -8.7 16.3
04:00 1021 30.15 850 25.1 1.8 35.2 46 -8.8 16.2
04:05 1021 30.15 850 25.1 1.9 35.4 45 -8.9 16
04:10 1021 30.15 850 25.1 1.9 35.5 46 -8.6 16.5
04:15 1021 30.15 850 25.1 1.9 35.5 45 -8.7 16.3
04:20 1021 30.15 850 25.1 2.1 35.8 44 -8.9 16
04:25 1021 30.15 850 25.1 2.2 36 44 -8.7 16.3
04:30 1021 30.15 850 25.1 2.1 35.8 44 -8.9 15.9
04:35 1021 30.15 850 25.1 2 35.6 44 -8.9 16
04:40 1021 30.15 850 25.1 1.8 35.3 45 -8.9 16
04:45 1021 30.15 850 25.1 1.7 35.1 46 -8.8 16.2
04:50 1021 30.15 850 25.1 1.8 35.2 45 -9.1 15.7
04:55 1021 30.15 850 25.1 2 35.6 44 -9.1 15.5
05:00 1021 30.15 850 25.1 1.9 35.4 45 -8.8 16.1
05:05 1021 30.15 850 25.1 1.8 35.2 45 -8.8 16.1
05:10 1021 30.15 850 25.1 1.7 35.1 45 -9 15.8
05:15 1021 30.15 850 25.1 1.8 35.2 45 -9 15.8
05:20 1021 30.15 850 25.1 1.8 35.2 43 -9.4 15.1
05:25 1021 30.15 850 25.1 1.8 35.3 45 -8.9 16
05:30 1021 30.15 850 25.1 1.7 35.1 45 -9.1 15.7
05:35 1021 30.15 850 25.1 1.9 35.3 45 -8.8 16.1
05:40 1021 30.15 850 25.1 1.8 35.3 44 -9.1 15.7
05:45 1021 30.15 850 25.1 1.8 35.3 44 -9.1 15.5
05:50 1021 30.15 850 25.1 1.8 35.3 43 -9.5 14.9
05:55 1021 30.15 850 25.1 2 35.6 42 -9.5 15
06:00 1021 30.15 850 25.1 2 35.6 44 -9 15.8
06:05 1021 30.15 850 25.1 1.6 34.9 46 -8.7 16.3
06:10 1021 30.15 850 25.1 1.3 34.4 46 -8.9 15.9
06:15 1021 30.15 850 25.1 1.4 34.6 45 -9.2 15.4
06:20 1021 30.15 850 25.1 1.7 35.1 44 -9.1 15.6
06:25 1021 30.15 850 25.1 1.6 34.8 46 -8.9 16
06:30 1021 30.15 850 25.1 1.8 35.2 44 -9.1 15.6
06:35 1021 30.15 850 25.1 2.1 35.7 43 -9.3 15.2
06:40 1021 30.15 850 25.1 2.2 36 43 -9.2 15.5
06:45 1021 30.15 850 25.1 2.2 35.9 42 -9.3 15.2
06:50 1021 30.15 850 25.1 2.2 36 42 -9.3 15.2
06:55 1021 30.15 850 25.1 2.4 36.3 42 -9.2 15.4
07:00 1021 30.15 850 25.1 2.3 36.1 42 -9.3 15.3
07:05 1021 30.15 850 25.1 2.2 36 43 -9.2 15.4
07:10 1021 30.15 850 25.1 2.3 36.1 42 -9.3 15.3
07:15 1021 30.15 850 25.1 2.4 36.3 42 -9.2 15.5
07:20 1021 30.15 850 25.1 2.6 36.6 41 -9.5 14.9
07:25 1021 30.15 850 25.1 3 37.4 39 -9.6 14.7
07:30 1021 30.15 850 25.1 3.3 37.9 39 -9.3 15.3
07:35 1021 30.15 850 25.1 3.5 38.4 39 -9.3 15.3
07:40 1021 30.15 850 25.1 3.5 38.4 39 -9 15.8
07:45 1021 30.15 850 25.1 3.5 38.4 41 -8.6 16.4
07:50 1021 30.15 850 25.1 3.7 38.6 41 -8.5 16.7
07:55 1021 30.15 850 25.1 3.9 39 41 -8.1 17.3
08:00 1021 30.15 850 25.1 3.8 38.8 42 -8.1 17.5
08:05 1021 30.15 850 25.1 4 39.2 41 -8.2 17.3
08:10 1021 30.15 850 25.1 3.9 38.9 41 -8.2 17.3
08:15 1021 30.15 850 25.1 4 39.2 42 -7.9 17.7
08:20 1021 30.15 850 25.1 4.5 40 39 -8.4 16.9
08:25 1021 30.15 850 25.1 5.3 41.5 35 -8.8 16.2
08:30 1021 30.15 850 25.1 5.9 42.7 35 -8.4 17
08:35 1021 30.15 850 25.1 6.6 43.9 32 -9 15.9
08:40 1021 30.15 850 25.1 6.9 44.4 32 -8.7 16.4
08:45 1021 30.15 850 25.1 7.2 45 31 -8.7 16.4
08:50 1021 30.15 850 25.1 7.4 45.3 31 -8.7 16.3
08:55 1021 30.15 850 25.1 7.6 45.6 30 -8.9 16
09:00 1021 30.15 850 25.1 8.6 47.4 29 -8.7 16.4
09:05 1021 30.15 850 25.1 9 48.1 28 -8.8 16.1
09:10 1021 30.15 850 25.1 9 48.1 28 -8.8 16.2
09:15 1021 30.15 850 25.1 9.6 49.3 25 -9.3 15.3
09:20 1021 30.15 850 25.1 9.8 49.7 25 -9 15.7
09:25 1021 30.15 850 25.1 10.4 50.6 24 -9.2 15.5
09:30 1021 30.15 850 25.1 10.8 51.5 24 -9.1 15.6
09:35 1021 30.15 850 25.1 11 51.7 23 -9.2 15.5
09:40 1020 30.12 850 25.1 10.7 51.3 24 -8.8 16.1
09:45 1021 30.15 850 25.1 11.1 51.9 24 -8.8 16.2
09:50 1020 30.12 850 25.1 10.5 51 24 -8.9 15.9
09:55 1020 30.12 850 25.1 10.9 51.7 24 -8.9 16
10:00 1020 30.12 850 25.1 11.5 52.7 23 -8.8 16.2
10:05 1020 30.12 850 25.1 11.6 52.8 23 -8.6 16.5
10:10 1020 30.12 850 25.1 12 53.5 23 -8.7 16.3
10:15 1020 30.12 850 25.1 12.1 53.9 22 -8.7 16.3
10:20 1020 30.12 850 25.1 12.7 54.8 22 -8.3 17
10:25 1020 30.12 849 25.07 13 55.4 22 -8.1 17.4
10:30 1020 30.12 849 25.07 13.2 55.7 21 -8.4 16.9
10:35 1020 30.12 849 25.07 13 55.4 22 -7.9 17.7
10:40 1020 30.12 849 25.07 12.7 54.8 22 -8.7 16.4
10:45 1020 30.12 849 25.07 12.7 54.9 22 -8.5 16.7
10:50 1020 30.12 849 25.07 12.5 54.5 23 -8.1 17.4
10:55 1020 30.12 849 25.07 13.3 56 22 -7.9 17.8
11:00 1020 30.12 849 25.07 12.6 54.6 23 -8.2 17.3
11:05 1020 30.12 849 25.07 13.3 55.9 23 -7.6 18.3
11:10 1020 30.12 849 25.07 13.8 56.9 22 -7.6 18.4
11:15 1020 30.12 849 25.07 13 55.3 22 -8.3 17.1
11:20 1020 30.12 849 25.07 13.8 56.9 21 -7.9 17.8
11:25 1020 30.12 849 25.07 14.5 58.1 21 -7.4 18.6
11:30 1020 30.12 849 25.07 15.1 59.2 20 -7.7 18.1
11:35 1020 30.12 849 25.07 15.1 59.1 20 -7.4 18.6
11:40 1020 30.12 849 25.07 14.6 58.4 20 -8.3 17
11:45 1019 30.09 849 25.07 15.2 59.4 18 -8.8 16.1
11:50 1019 30.09 849 25.07 15.4 59.7 18 -8.6 16.5
11:55 1019 30.09 849 25.07 15.8 60.5 18 -8.6 16.6
12:00 1019 30.09 849 25.07 15.9 60.6 18 -8.5 16.6
12:05 1019 30.09 848 25.04 15.8 60.5 18 -8.7 16.3
12:10 1019 30.09 848 25.04 15.5 59.8 17 -9.6 14.6
12:15 1019 30.09 848 25.04 15.1 59.1 16 -10.3 13.5
12:20 1019 30.09 848 25.04 15.6 60.2 16 -9.8 14.3
12:25 1019 30.09 848 25.04 16.6 61.9 15 -10.1 13.9
12:30 1019 30.09 848 25.04 16.9 62.5 15 -9.6 14.7
12:35 1019 30.09 848 25.04 16.8 62.2 16 -9.5 14.9
12:40 1019 30.09 848 25.04 16.5 61.7 16 -9.6 14.7
12:45 1019 30.09 848 25.04 16.8 62.3 15 -9.7 14.5
12:50 1019 30.09 848 25.04 15.8 60.5 18 -8.7 16.4
12:55 1019 30.09 848 25.04 16.1 61 16 -9.9 14.1
13:00 1019 30.09 848 25.04 16.7 62 17 -8.8 16.2
13:05 1019 30.09 848 25.04 16.4 61.5 18 -8.1 17.5
13:10 1019 30.09 848 25.04 16.7 62.1 17 -8.5 16.7
13:15 1019 30.09 848 25.04 17.4 63.4 17 -7.5 18.5
13:20 1018 30.06 848 25.04 17.8 64.1 16 -7.9 17.7
13:25 1018 30.06 848 25.04 17.6 63.7 16 -8.9 16.1
13:30 1018 30.06 848 25.04 18.1 64.5 16 -8.3 17.1
13:35 1018 30.06 847 25.01 17.9 64.2 16 -8.5 16.6
13:40 1018 30.06 847 25.01 17.9 64.2 16 -8.6 16.6
13:45 1018 30.06 847 25.01 17.6 63.7 16 -8.7 16.3
13:50 1018 30.06 847 25.01 18.3 64.9 16 -8 17.6
13:55 1018 30.06 847 25.01 18.8 65.8 15 -7.9 17.7
14:00 1018 30.06 847 25.01 18.3 64.9 15 -8.8 16.2
14:05 1018 30.06 847 25.01 18.1 64.5 16 -8.4 16.9
14:10 1018 30.06 847 25.01 18.9 66 16 -7.6 18.3
14:15 1018 30.06 847 25.01 18.5 65.3 15 -8.1 17.4
14:20 1018 30.06 847 25.01 18.2 64.7 16 -8.4 16.9
14:25 1017 30.03 847 25.01 18.5 65.2 15 -8.4 16.9
14:30 1017 30.03 847 25.01 18.4 65.2 15 -8.7 16.4
14:35 1017 30.03 847 25.01 18 64.4 15 -8.6 16.6
14:40 1017 30.03 846 24.98 18.1 64.6 16 -8.3 17
14:45 1017 30.03 846 24.98 19.2 66.6 14 -8.4 16.8
14:50 1017 30.03 846 24.98 19.7 67.5 14 -8.1 17.5
14:55 1017 30.03 846 24.98 19.8 67.7 14 -8.5 16.7
15:00 1017 30.03 846 24.98 18.9 65.9 15 -8.3 17
15:05 1017 30.03 846 24.98 19.2 66.6 15 -8.1 17.3
15:10 1017 30.03 846 24.98 20.2 68.4 14 -8.3 17.1
15:15 1017 30.03 846 24.98 20.5 68.9 14 -8.1 17.4
15:20 1017 30.03 846 24.98 19.3 66.7 15 -7.9 17.7
15:25 1017 30.03 846 24.98 19.1 66.3 15 -8.4 16.9
15:30 1017 30.03 846 24.98 19.6 67.2 14 -8.2 17.2
15:35 1017 30.03 846 24.98 20.2 68.3 14 -7.9 17.8
15:40 1017 30.03 846 24.98 20.1 68.1 14 -8.5 16.6
15:45 1016 30 846 24.98 20.7 69.2 13 -8.3 17
15:50 1016 30 845 24.95 20.6 69 13 -8.3 17
15:55 1016 30 845 24.95 20 68 14 -8.4 16.9
16:00 1016 30 845 24.95 19.9 67.8 14 -8.3 17.1
16:05 1016 30 845 24.95 20.6 69.1 13 -8.4 16.8
16:10 1016 30 845 24.95 20.8 69.5 13 -8.8 16.2
16:15 1016 30 845 24.95 20.3 68.6 13 -8.5 16.7
16:20 1016 30 845 24.95 20.4 68.8 14 -8.3 17.1
16:25 1016 30 845 24.95 20 68.1 14 -8.6 16.5
16:30 1016 30 845 24.95 20.3 68.6 13 -8.6 16.6
16:35 1016 30 845 24.95 19.8 67.6 13 -8.9 15.9
16:40 1016 30 845 24.95 20.1 68.2 13 -9.2 15.5
16:45 1016 30 845 24.95 21 69.7 13 -8.6 16.6
16:50 1016 30 845 24.95 20.9 69.7 13 -8 17.5
16:55 1016 30 845 24.95 20.5 68.9 13 -8.5 16.7
17:00 1016 30 845 24.95 19.9 67.8 13 -8.8 16.1
17:05 1016 30 845 24.95 20.2 68.3 13 -8.9 16.1
17:10 1015 29.97 845 24.95 20.8 69.4 13 -9 15.8
17:15 1015 29.97 845 24.95 21.1 70 13 -8.7 16.3
17:20 1015 29.97 845 24.95 21.2 70.2 12 -8.9 15.9
17:25 1015 29.97 845 24.95 20.8 69.4 13 -8.9 15.9
17:30 1015 29.97 844 24.92 21 69.8 13 -8.5 16.6
17:35 1015 29.97 844 24.92 20.9 69.7 13 -8.8 16.1
17:40 1015 29.97 844 24.92 20 67.9 13 -8.8 16.2
17:45 1015 29.97 844 24.92 20 68 13 -8.9 15.9
17:50 1015 29.97 844 24.92 20 68 13 -8.8 16.1
17:55 1015 29.97 844 24.92 20.2 68.3 13 -9 15.8
18:00 1015 29.97 844 24.92 20.4 68.6 13 -8.9 15.9
18:05 1015 29.97 844 24.92 20.7 69.2 13 -8.8 16.2
18:10 1015 29.97 844 24.92 20.3 68.5 13 -9 15.8
18:15 1015 29.97 844 24.92 19.9 67.9 13 -9.1 15.7
18:20 1015 29.97 844 24.92 20.1 68.3 13 -9 15.8
18:25 1015 29.97 844 24.92 19.7 67.5 13 -8.9 15.9
18:30 1015 29.97 844 24.92 19.3 66.8 13 -9.2 15.4
18:35 1015 29.97 844 24.92 19.3 66.8 14 -8.7 16.4
18:40 1015 29.97 844 24.92 19.3 66.7 14 -9.2 15.4
18:45 1015 29.97 844 24.92 19.4 66.8 14 -8.5 16.7
18:50 1015 29.97 844 24.92 19.3 66.8 14 -8.7 16.3
18:55 1015 29.97 844 24.92 18.8 65.8 15 -8.2 17.3
19:00 1015 29.97 844 24.92 18.5 65.4 14 -9 15.8
19:05 1015 29.97 844 24.92 18.3 64.9 15 -8.7 16.3
19:10 1015 29.97 844 24.92 18.1 64.5 15 -9 15.9
19:15 1015 29.97 844 24.92 17.8 64.1 14 -9.6 14.8
19:20 1015 29.97 844 24.92 17.7 63.9 14 -9.7 14.5
19:25 1015 29.97 844 24.92 17.6 63.8 14 -9.9 14.1
19:30 1015 29.97 844 24.92 17.4 63.4 16 -8.7 16.4
19:35 1015 29.97 844 24.92 16.9 62.5 15 -9.4 15
19:40 1015 29.97 844 24.92 16.9 62.3 15 -9.6 14.7
19:45 1015 29.97 844 24.92 16.6 61.8 17 -8.9 16
19:50 1015 29.97 844 24.92 16.5 61.6 21 -6.2 20.9
19:55 1015 29.97 844 24.92 16.4 61.6 16 -9.3 15.2
20:00 1015 29.97 844 24.92 16.2 61.2 16 -9.6 14.8
20:05 1015 29.97 844 24.92 16.1 60.9 18 -8.5 16.6
20:10 1015 29.97 844 24.92 15.8 60.5 18 -8.5 16.7
20:15 1015 29.97 844 24.92 15.6 60.2 18 -8.8 16.2
20:20 1015 29.97 844 24.92 15.6 60 18 -8.8 16.2
20:25 1015 29.97 844 24.92 15.3 59.6 19 -8.3 17.1
20:30 1015 29.97 844 24.92 15 59 19 -8.4 16.9
20:35 1015 29.97 844 24.92 14.8 58.6 20 -7.9 17.9
20:40 1015 29.97 844 24.92 14.6 58.2 20 -8.3 17
20:45 1015 29.97 844 24.92 14.8 58.6 19 -8.4 16.9
20:50 1015 29.97 844 24.92 15.1 59.2 17 -9.8 14.4
20:55 1015 29.97 844 24.92 15.5 59.9 16 -10.2 13.7
21:00 1015 29.97 844 24.92 15.5 59.9 18 -8.7 16.3
21:05 1015 29.97 844 24.92 15.2 59.3 20 -7.4 18.7
21:10 1015 29.97 844 24.92 15 59.1 19 -8.5 16.6
21:15 1015 29.97 844 24.92 14.9 58.9 19 -8.4 16.9
21:20 1015 29.97 844 24.92 14.6 58.3 20 -8.2 17.3
21:25 1015 29.97 844 24.92 14.2 57.6 26 -5 23
21:30 1015 29.97 844 24.92 13.9 57 22 -7.6 18.2
21:35 1015 29.97 844 24.92 13.3 55.9 22 -7.7 18.1
21:40 1015 29.97 844 24.92 12.7 54.9 23 -7.7 18.2
21:45 1015 29.97 844 24.92 12.4 54.3 24 -7.8 18
21:50 1015 29.97 844 24.92 12.4 54.3 24 -7.7 18.2
21:55 1015 29.97 844 24.92 12.5 54.4 23 -7.8 17.9
22:00 1015 29.97 844 24.92 12.4 54.3 23 -8.2 17.2
22:05 1015 29.97 844 24.92 12.4 54.3 22 -8.7 16.4
22:10 1015 29.97 844 24.92 12.6 54.7 22 -8.3 17.1
22:15 1015 29.97 844 24.92 12.6 54.7 22 -8.4 16.8
22:20 1015 29.97 844 24.92 12.8 55.1 21 -9.1 15.6
22:25 1015 29.97 844 24.92 12.8 55.1 23 -8 17.6
22:30 1015 29.97 844 24.92 12 53.7 24 -7.9 17.8
22:35 1015 29.97 844 24.92 11.6 52.9 25 -7.9 17.7
22:40 1015 29.97 844 24.92 11.4 52.5 25 -8.2 17.3
22:45 1015 29.97 844 24.92 11.4 52.5 25 -7.9 17.7
22:50 1015 29.97 844 24.92 11.1 51.9 26 -7.8 17.9
22:55 1015 29.97 844 24.92 10.8 51.5 26 -7.9 17.7
23:00 1015 29.97 844 24.92 10.8 51.4 26 -8.2 17.3
23:05 1015 29.97 844 24.92 10.7 51.2 27 -7.6 18.3
23:10 1015 29.97 844 24.92 10.4 50.6 27 -7.8 17.9
23:15 1015 29.97 844 24.92 10.6 51.1 26 -8.1 17.5
23:20 1015 29.97 844 24.92 10.8 51.4 25 -8.3 17.1
23:25 1015 29.97 844 24.92 10.8 51.5 26 -8.1 17.5
23:30 1015 29.97 844 24.92 10.8 51.4 26 -8 17.6
23:35 1014 29.94 844 24.92 10.7 51.2 26 -8.1 17.5
23:40 1014 29.94 844 24.92 10.6 51 26 -8 17.6
23:45 1014 29.94 844 24.92 10.4 50.8 26 -8.1 17.4
23:50 1014 29.94 844 24.92 10.9 51.6 25 -8.2 17.3
23:55 1014 29.94 844 24.92 10.6 51 26 -8 17.7
24:00 1014 29.94 844 24.92 11.6 52.8 23 -8.6 16.5